createdAt,value
2022-11-05T16:54:20.204Z,1.50
2022-11-05T16:57:28.542Z,1.27
2022-11-05T17:00:33.743Z,1.45
2022-11-05T17:03:38.744Z,1.40
2022-11-05T17:06:46.591Z,1.58
2022-11-05T17:09:51.653Z,1.58
2022-11-05T17:12:56.953Z,1.30
2022-11-05T17:16:01.946Z,1.45
2022-11-05T17:19:15.255Z,1.33
2022-11-05T17:22:20.628Z,1.63
2022-11-05T17:25:26.965Z,1.70
2022-11-05T17:28:33.036Z,1.60
2022-11-05T17:31:40.642Z,1.30
2022-11-05T17:34:46.480Z,1.40
2022-11-05T17:37:51.246Z,1.45
2022-11-05T17:40:56.477Z,1.50
2022-11-05T17:44:01.580Z,1.55
2022-11-05T17:47:06.827Z,1.40
2022-11-05T17:50:16.016Z,1.50
2022-11-05T17:53:21.029Z,1.70
2022-11-05T17:56:33.783Z,1.70
2022-11-05T17:59:39.883Z,2.28
2022-11-05T18:02:46.470Z,1.60
2022-11-05T18:05:51.761Z,1.60
2022-11-05T18:08:57.052Z,1.83
2022-11-05T18:12:02.233Z,1.65
2022-11-05T18:15:08.742Z,2.10
2022-11-05T18:18:13.738Z,1.67
2022-11-05T18:21:18.752Z,1.92
2022-11-05T18:24:24.124Z,1.92
2022-11-05T18:27:29.036Z,2.03
2022-11-05T18:30:34.559Z,2.30
2022-11-05T18:33:39.878Z,2.08
2022-11-05T18:36:45.559Z,2.00
2022-11-05T18:39:51.801Z,1.80
2022-11-05T18:42:56.838Z,1.80
2022-11-05T18:46:01.980Z,2.13
2022-11-05T18:49:07.268Z,2.20
2022-11-05T18:52:12.333Z,2.30
2022-11-05T18:55:17.485Z,2.17
2022-11-05T18:58:22.197Z,2.40
2022-11-05T19:01:28.363Z,2.20
2022-11-05T19:04:36.663Z,2.40
2022-11-05T19:07:41.524Z,2.35
2022-11-05T19:10:51.340Z,2.10
2022-11-05T19:13:56.266Z,2.45
2022-11-05T19:17:01.968Z,2.28
2022-11-05T19:20:09.304Z,2.45
2022-11-05T19:23:14.142Z,2.75
2022-11-05T19:26:28.333Z,2.50
2022-11-05T19:29:33.807Z,2.58
2022-11-05T19:32:38.585Z,2.85
2022-11-05T19:35:43.386Z,2.80
2022-11-05T19:38:53.980Z,3.10
2022-11-05T19:42:03.105Z,3.22
2022-11-05T19:45:42.946Z,2.50
2022-11-05T19:48:34.973Z,3.30
2022-11-05T19:51:40.058Z,2.97
2022-11-05T19:54:46.094Z,3.15
2022-11-05T19:57:51.152Z,3.20
2022-11-05T20:00:56.113Z,3.78
2022-11-05T20:04:02.588Z,3.50
2022-11-05T20:07:07.341Z,3.00
2022-11-05T20:10:12.297Z,3.65
2022-11-05T20:13:20.008Z,3.47
2022-11-05T20:16:39.060Z,3.60
2022-11-05T20:19:44.185Z,4.32
2022-11-05T20:22:52.347Z,3.83
2022-11-05T20:25:58.692Z,3.92
2022-11-05T20:29:03.917Z,3.78
2022-11-05T20:32:09.409Z,4.53
2022-11-05T20:35:14.259Z,3.80
2022-11-05T20:38:19.414Z,4.30
2022-11-05T20:41:26.538Z,3.65
2022-11-05T20:44:31.073Z,3.92
2022-11-05T20:47:37.507Z,3.95
2022-11-05T20:50:44.981Z,4.68
2022-11-05T20:53:55.488Z,4.43
2022-11-05T20:57:00.513Z,4.40
2022-11-05T21:00:07.382Z,4.43
2022-11-05T21:03:12.309Z,4.07
2022-11-05T21:06:18.072Z,4.40
2022-11-05T21:09:23.031Z,3.83
2022-11-05T21:12:28.073Z,4.25
2022-11-05T21:15:33.067Z,4.15
2022-11-05T21:18:40.001Z,3.63
2022-11-05T21:21:44.821Z,4.00
2022-11-05T21:24:49.846Z,4.47
2022-11-05T21:27:55.056Z,4.22
2022-11-05T21:31:02.438Z,4.47
2022-11-05T21:34:07.454Z,4.60
2022-11-05T21:37:12.395Z,4.03
2022-11-05T21:40:17.501Z,4.10
2022-11-05T21:43:22.241Z,3.90
2022-11-05T21:46:27.491Z,4.05
2022-11-05T21:49:34.482Z,3.97
2022-11-05T21:52:58.024Z,4.03
2022-11-05T21:56:33.667Z,3.47
2022-11-05T21:59:55.299Z,3.72
2022-11-05T22:03:00.479Z,3.58
2022-11-05T22:06:06.037Z,3.50
2022-11-05T22:09:10.691Z,4.07
2022-11-05T22:12:16.254Z,3.22
2022-11-05T22:15:21.633Z,3.42
2022-11-05T22:18:26.759Z,3.97
2022-11-05T22:21:31.939Z,3.75
2022-11-05T22:24:38.276Z,4.07
2022-11-05T22:27:44.086Z,3.13
2022-11-05T22:30:49.461Z,3.90
2022-11-05T22:33:54.502Z,3.13
2022-11-05T22:36:59.660Z,3.33
2022-11-05T22:40:04.842Z,3.70
2022-11-05T22:43:10.039Z,3.80
2022-11-05T22:46:23.667Z,3.40
2022-11-05T22:49:28.531Z,4.13
2022-11-05T22:52:33.809Z,3.53
2022-11-05T22:55:41.626Z,4.32
2022-11-05T22:58:47.520Z,4.28
2022-11-05T23:01:52.667Z,4.00
2022-11-05T23:04:57.577Z,4.70
2022-11-05T23:08:21.079Z,4.55
2022-11-05T23:11:38.756Z,3.90
2022-11-05T23:14:43.966Z,4.60
2022-11-05T23:18:07.497Z,4.63
2022-11-05T23:21:31.033Z,3.95
2022-11-05T23:24:36.096Z,3.72
2022-11-05T23:27:41.612Z,5.22
2022-11-05T23:31:04.978Z,4.30
2022-11-05T23:34:10.036Z,4.32
2022-11-05T23:37:33.471Z,4.25
2022-11-05T23:40:58.395Z,4.47
2022-11-05T23:44:22.109Z,4.57
2022-11-05T23:47:45.895Z,3.95
2022-11-05T23:51:10.293Z,5.20
2022-11-05T23:54:15.365Z,4.72
2022-11-05T23:57:20.689Z,4.43
